sensor_id;sensor_type;location;lat;lon;timestamp;temperature;humidity
70826;SHT31;58446;41.490;22.098;2022-09-02T00:00:52;24.43;70.88
70826;SHT31;58446;41.490;22.098;2022-09-02T00:03:19;24.46;70.86
70826;SHT31;58446;41.490;22.098;2022-09-02T00:05:45;24.41;71.05
70826;SHT31;58446;41.490;22.098;2022-09-02T00:08:11;24.41;71.09
70826;SHT31;58446;41.490;22.098;2022-09-02T00:10:39;24.37;71.18
70826;SHT31;58446;41.490;22.098;2022-09-02T00:13:08;24.35;71.29
70826;SHT31;58446;41.490;22.098;2022-09-02T00:15:34;24.33;71.31
70826;SHT31;58446;41.490;22.098;2022-09-02T00:18:00;24.01;72.72
70826;SHT31;58446;41.490;22.098;2022-09-02T00:20:28;24.02;72.31
70826;SHT31;58446;41.490;22.098;2022-09-02T00:22:54;23.82;73.49
70826;SHT31;58446;41.490;22.098;2022-09-02T00:25:21;23.99;72.44
70826;SHT31;58446;41.490;22.098;2022-09-02T00:27:48;24.15;72.14
70826;SHT31;58446;41.490;22.098;2022-09-02T00:30:13;24.28;71.22
70826;SHT31;58446;41.490;22.098;2022-09-02T00:32:40;24.37;70.97
70826;SHT31;58446;41.490;22.098;2022-09-02T00:35:06;24.37;70.86
70826;SHT31;58446;41.490;22.098;2022-09-02T00:37:32;24.32;71.24
70826;SHT31;58446;41.490;22.098;2022-09-02T00:39:57;24.12;72.91
70826;SHT31;58446;41.490;22.098;2022-09-02T00:42:24;24.13;72.95
70826;SHT31;58446;41.490;22.098;2022-09-02T00:44:51;23.82;73.71
70826;SHT31;58446;41.490;22.098;2022-09-02T00:47:17;23.92;72.76
70826;SHT31;58446;41.490;22.098;2022-09-02T00:49:47;23.94;73.73
70826;SHT31;58446;41.490;22.098;2022-09-02T00:52:25;23.74;74.82
70826;SHT31;58446;41.490;22.098;2022-09-02T00:54:56;24.05;72.26
70826;SHT31;58446;41.490;22.098;2022-09-02T00:57:25;24.06;72.54
70826;SHT31;58446;41.490;22.098;2022-09-02T01:02:39;24.09;72.21
70826;SHT31;58446;41.490;22.098;2022-09-02T01:05:08;24.10;72.21
70826;SHT31;58446;41.490;22.098;2022-09-02T01:07:36;23.97;72.87
70826;SHT31;58446;41.490;22.098;2022-09-02T01:10:08;24.04;72.60
70826;SHT31;58446;41.490;22.098;2022-09-02T01:12:35;24.06;72.54
70826;SHT31;58446;41.490;22.098;2022-09-02T01:15:02;24.08;72.43
70826;SHT31;58446;41.490;22.098;2022-09-02T01:17:31;23.57;75.24
70826;SHT31;58446;41.490;22.098;2022-09-02T01:20:04;23.90;72.75
70826;SHT31;58446;41.490;22.098;2022-09-02T01:22:31;24.22;71.63
70826;SHT31;58446;41.490;22.098;2022-09-02T01:25:04;24.05;72.40
70826;SHT31;58446;41.490;22.098;2022-09-02T01:27:30;23.94;72.80
70826;SHT31;58446;41.490;22.098;2022-09-02T01:29:58;23.82;73.05
70826;SHT31;58446;41.490;22.098;2022-09-02T01:32:26;23.81;73.24
70826;SHT31;58446;41.490;22.098;2022-09-02T01:34:53;23.89;72.61
70826;SHT31;58446;41.490;22.098;2022-09-02T01:37:19;23.98;72.10
70826;SHT31;58446;41.490;22.098;2022-09-02T01:39:45;23.90;72.57
70826;SHT31;58446;41.490;22.098;2022-09-02T01:42:12;24.04;72.35
70826;SHT31;58446;41.490;22.098;2022-09-02T01:44:39;23.98;72.40
70826;SHT31;58446;41.490;22.098;2022-09-02T01:47:18;23.90;73.19
70826;SHT31;58446;41.490;22.098;2022-09-02T01:49:45;24.01;72.31
70826;SHT31;58446;41.490;22.098;2022-09-02T01:52:11;23.65;74.43
70826;SHT31;58446;41.490;22.098;2022-09-02T01:54:37;23.53;75.10
70826;SHT31;58446;41.490;22.098;2022-09-02T01:57:03;23.67;73.78
70826;SHT31;58446;41.490;22.098;2022-09-02T01:59:29;23.72;73.81
70826;SHT31;58446;41.490;22.098;2022-09-02T02:01:55;23.75;73.66
70826;SHT31;58446;41.490;22.098;2022-09-02T02:04:20;23.79;72.97
70826;SHT31;58446;41.490;22.098;2022-09-02T02:06:50;23.62;74.40
70826;SHT31;58446;41.490;22.098;2022-09-02T02:09:17;23.68;73.69
70826;SHT31;58446;41.490;22.098;2022-09-02T02:11:43;23.84;72.79
70826;SHT31;58446;41.490;22.098;2022-09-02T02:14:10;23.86;72.73
70826;SHT31;58446;41.490;22.098;2022-09-02T02:16:36;23.97;72.79
70826;SHT31;58446;41.490;22.098;2022-09-02T02:19:02;23.59;74.14
70826;SHT31;58446;41.490;22.098;2022-09-02T02:21:29;23.37;74.93
70826;SHT31;58446;41.490;22.098;2022-09-02T02:23:56;23.50;74.08
70826;SHT31;58446;41.490;22.098;2022-09-02T02:26:22;23.54;74.05
70826;SHT31;58446;41.490;22.098;2022-09-02T02:28:48;23.65;73.51
70826;SHT31;58446;41.490;22.098;2022-09-02T02:31:14;23.67;73.43
70826;SHT31;58446;41.490;22.098;2022-09-02T02:33:40;23.57;74.13
70826;SHT31;58446;41.490;22.098;2022-09-02T02:36:06;23.53;73.98
70826;SHT31;58446;41.490;22.098;2022-09-02T02:38:34;23.19;74.53
70826;SHT31;58446;41.490;22.098;2022-09-02T02:41:01;22.88;75.91
70826;SHT31;58446;41.490;22.098;2022-09-02T02:43:32;22.51;77.42
70826;SHT31;58446;41.490;22.098;2022-09-02T02:45:58;22.59;77.21
70826;SHT31;58446;41.490;22.098;2022-09-02T02:48:23;23.09;75.33
70826;SHT31;58446;41.490;22.098;2022-09-02T02:50:49;23.54;73.60
70826;SHT31;58446;41.490;22.098;2022-09-02T02:53:15;23.61;73.46
70826;SHT31;58446;41.490;22.098;2022-09-02T02:55:42;23.69;73.28
70826;SHT31;58446;41.490;22.098;2022-09-02T02:58:08;23.77;72.75
70826;SHT31;58446;41.490;22.098;2022-09-02T03:00:34;23.97;72.16
70826;SHT31;58446;41.490;22.098;2022-09-02T03:03:05;24.04;71.87
70826;SHT31;58446;41.490;22.098;2022-09-02T03:05:33;23.99;72.05
70826;SHT31;58446;41.490;22.098;2022-09-02T03:08:01;23.95;72.51
70826;SHT31;58446;41.490;22.098;2022-09-02T03:10:27;23.84;73.48
70826;SHT31;58446;41.490;22.098;2022-09-02T03:12:53;23.67;74.92
70826;SHT31;58446;41.490;22.098;2022-09-02T03:15:20;23.71;73.74
70826;SHT31;58446;41.490;22.098;2022-09-02T03:17:46;23.94;72.78
70826;SHT31;58446;41.490;22.098;2022-09-02T03:20:13;24.02;72.32
70826;SHT31;58446;41.490;22.098;2022-09-02T03:22:41;24.09;72.02
70826;SHT31;58446;41.490;22.098;2022-09-02T03:25:09;24.12;71.99
70826;SHT31;58446;41.490;22.098;2022-09-02T03:27:38;24.10;71.89
70826;SHT31;58446;41.490;22.098;2022-09-02T03:30:10;24.12;71.68
70826;SHT31;58446;41.490;22.098;2022-09-02T03:32:36;24.08;72.12
70826;SHT31;58446;41.490;22.098;2022-09-02T03:35:08;23.74;73.06
70826;SHT31;58446;41.490;22.098;2022-09-02T03:37:34;23.61;74.30
70826;SHT31;58446;41.490;22.098;2022-09-02T03:40:11;23.34;75.92
70826;SHT31;58446;41.490;22.098;2022-09-02T03:42:37;23.53;74.85
70826;SHT31;58446;41.490;22.098;2022-09-02T03:45:04;23.33;75.56
70826;SHT31;58446;41.490;22.098;2022-09-02T03:47:31;23.44;74.24
70826;SHT31;58446;41.490;22.098;2022-09-02T03:49:57;23.31;75.64
70826;SHT31;58446;41.490;22.098;2022-09-02T03:52:23;23.31;75.86
70826;SHT31;58446;41.490;22.098;2022-09-02T03:54:50;23.28;75.48
70826;SHT31;58446;41.490;22.098;2022-09-02T03:57:16;23.37;74.92
70826;SHT31;58446;41.490;22.098;2022-09-02T03:59:41;23.33;75.37
70826;SHT31;58446;41.490;22.098;2022-09-02T04:02:07;23.20;75.57
70826;SHT31;58446;41.490;22.098;2022-09-02T04:04:34;23.07;76.46
70826;SHT31;58446;41.490;22.098;2022-09-02T04:06:59;23.07;76.65
70826;SHT31;58446;41.490;22.098;2022-09-02T04:09:25;23.26;75.42
70826;SHT31;58446;41.490;22.098;2022-09-02T04:11:51;23.46;74.67
70826;SHT31;58446;41.490;22.098;2022-09-02T04:14:17;23.58;74.15
70826;SHT31;58446;41.490;22.098;2022-09-02T04:16:43;23.43;76.72
70826;SHT31;58446;41.490;22.098;2022-09-02T04:19:09;23.38;75.18
70826;SHT31;58446;41.490;22.098;2022-09-02T04:21:38;23.51;74.89
70826;SHT31;58446;41.490;22.098;2022-09-02T04:24:05;22.85;77.33
70826;SHT31;58446;41.490;22.098;2022-09-02T04:26:32;22.76;77.71
70826;SHT31;58446;41.490;22.098;2022-09-02T04:28:58;23.20;75.75
70826;SHT31;58446;41.490;22.098;2022-09-02T04:31:24;23.46;74.78
70826;SHT31;58446;41.490;22.098;2022-09-02T04:33:51;23.68;73.93
70826;SHT31;58446;41.490;22.098;2022-09-02T04:36:18;23.69;74.17
70826;SHT31;58446;41.490;22.098;2022-09-02T04:38:44;23.82;73.51
70826;SHT31;58446;41.490;22.098;2022-09-02T04:41:13;23.75;74.44
70826;SHT31;58446;41.490;22.098;2022-09-02T04:43:39;23.89;73.32
70826;SHT31;58446;41.490;22.098;2022-09-02T04:46:08;23.92;73.85
70826;SHT31;58446;41.490;22.098;2022-09-02T04:48:35;23.79;74.00
70826;SHT31;58446;41.490;22.098;2022-09-02T04:51:15;23.81;73.83
70826;SHT31;58446;41.490;22.098;2022-09-02T04:53:42;23.84;74.10
70826;SHT31;58446;41.490;22.098;2022-09-02T04:56:10;23.74;74.99
70826;SHT31;58446;41.490;22.098;2022-09-02T04:58:36;23.77;74.11
70826;SHT31;58446;41.490;22.098;2022-09-02T05:01:07;23.88;73.43
70826;SHT31;58446;41.490;22.098;2022-09-02T05:03:33;23.98;72.93
70826;SHT31;58446;41.490;22.098;2022-09-02T05:06:00;23.81;73.65
70826;SHT31;58446;41.490;22.098;2022-09-02T05:08:27;23.85;73.73
70826;SHT31;58446;41.490;22.098;2022-09-02T05:10:53;23.95;74.01
70826;SHT31;58446;41.490;22.098;2022-09-02T05:13:18;23.72;74.74
70826;SHT31;58446;41.490;22.098;2022-09-02T05:15:45;23.89;73.18
70826;SHT31;58446;41.490;22.098;2022-09-02T05:18:11;24.01;72.79
70826;SHT31;58446;41.490;22.098;2022-09-02T05:20:38;23.92;73.01
70826;SHT31;58446;41.490;22.098;2022-09-02T05:23:05;23.90;72.93
70826;SHT31;58446;41.490;22.098;2022-09-02T05:25:31;24.13;72.25
70826;SHT31;58446;41.490;22.098;2022-09-02T05:27:57;24.13;72.74
70826;SHT31;58446;41.490;22.098;2022-09-02T05:30:23;24.05;72.73
70826;SHT31;58446;41.490;22.098;2022-09-02T05:32:48;23.95;72.91
70826;SHT31;58446;41.490;22.098;2022-09-02T05:35:15;24.08;72.16
70826;SHT31;58446;41.490;22.098;2022-09-02T05:37:41;24.19;71.77
70826;SHT31;58446;41.490;22.098;2022-09-02T05:40:07;24.23;71.49
70826;SHT31;58446;41.490;22.098;2022-09-02T05:42:33;24.26;71.60
70826;SHT31;58446;41.490;22.098;2022-09-02T05:44:59;24.13;72.86
70826;SHT31;58446;41.490;22.098;2022-09-02T05:47:25;24.05;74.53
70826;SHT31;58446;41.490;22.098;2022-09-02T05:49:50;23.74;75.56
70826;SHT31;58446;41.490;22.098;2022-09-02T05:52:16;23.77;75.41
70826;SHT31;58446;41.490;22.098;2022-09-02T05:54:42;23.74;74.91
70826;SHT31;58446;41.490;22.098;2022-09-02T05:57:11;23.69;74.31
70826;SHT31;58446;41.490;22.098;2022-09-02T05:59:39;24.02;74.16
70826;SHT31;58446;41.490;22.098;2022-09-02T06:02:07;24.13;75.25
70826;SHT31;58446;41.490;22.098;2022-09-02T06:05:00;24.01;75.30
70826;SHT31;58446;41.490;22.098;2022-09-02T06:07:26;24.19;72.74
70826;SHT31;58446;41.490;22.098;2022-09-02T06:09:52;24.16;72.95
70826;SHT31;58446;41.490;22.098;2022-09-02T06:12:18;24.10;73.30
70826;SHT31;58446;41.490;22.098;2022-09-02T06:14:46;24.13;73.63
70826;SHT31;58446;41.490;22.098;2022-09-02T06:17:13;24.22;72.86
70826;SHT31;58446;41.490;22.098;2022-09-02T06:19:39;24.20;72.79
70826;SHT31;58446;41.490;22.098;2022-09-02T06:22:05;24.28;72.96
70826;SHT31;58446;41.490;22.098;2022-09-02T06:24:31;24.25;72.82
70826;SHT31;58446;41.490;22.098;2022-09-02T06:26:57;24.33;72.66
70826;SHT31;58446;41.490;22.098;2022-09-02T06:29:24;24.52;72.09
70826;SHT31;58446;41.490;22.098;2022-09-02T06:31:50;24.64;71.69
70826;SHT31;58446;41.490;22.098;2022-09-02T06:34:18;24.80;71.74
70826;SHT31;58446;41.490;22.098;2022-09-02T06:36:47;25.17;72.50
70826;SHT31;58446;41.490;22.098;2022-09-02T06:39:15;25.12;71.18
70826;SHT31;58446;41.490;22.098;2022-09-02T06:41:42;24.98;71.20
70826;SHT31;58446;41.490;22.098;2022-09-02T06:44:09;24.73;71.95
70826;SHT31;58446;41.490;22.098;2022-09-02T06:46:44;24.59;71.84
70826;SHT31;58446;41.490;22.098;2022-09-02T06:49:12;24.66;71.52
70826;SHT31;58446;41.490;22.098;2022-09-02T06:51:42;24.83;71.21
70826;SHT31;58446;41.490;22.098;2022-09-02T06:54:12;24.92;71.10
70826;SHT31;58446;41.490;22.098;2022-09-02T06:56:38;24.95;70.78
70826;SHT31;58446;41.490;22.098;2022-09-02T06:59:04;25.15;71.77
70826;SHT31;58446;41.490;22.098;2022-09-02T07:01:31;25.45;72.08
70826;SHT31;58446;41.490;22.098;2022-09-02T07:03:57;25.85;70.90
70826;SHT31;58446;41.490;22.098;2022-09-02T07:06:47;26.28;68.15
70826;SHT31;58446;41.490;22.098;2022-09-02T07:09:16;26.34;66.12
70826;SHT31;58446;41.490;22.098;2022-09-02T07:11:42;26.57;67.13
70826;SHT31;58446;41.490;22.098;2022-09-02T07:14:13;26.54;66.53
70826;SHT31;58446;41.490;22.098;2022-09-02T07:16:49;26.72;66.51
70826;SHT31;58446;41.490;22.098;2022-09-02T07:19:16;26.85;64.58
70826;SHT31;58446;41.490;22.098;2022-09-02T07:21:42;27.00;63.87
70826;SHT31;58446;41.490;22.098;2022-09-02T07:24:10;27.00;63.15
70826;SHT31;58446;41.490;22.098;2022-09-02T07:26:37;27.15;62.98
70826;SHT31;58446;41.490;22.098;2022-09-02T07:29:04;26.87;64.57
70826;SHT31;58446;41.490;22.098;2022-09-02T07:31:34;26.54;64.42
70826;SHT31;58446;41.490;22.098;2022-09-02T07:34:00;26.45;66.70
70826;SHT31;58446;41.490;22.098;2022-09-02T07:36:26;26.37;65.95
70826;SHT31;58446;41.490;22.098;2022-09-02T07:38:52;26.24;65.41
70826;SHT31;58446;41.490;22.098;2022-09-02T07:41:19;25.99;67.72
70826;SHT31;58446;41.490;22.098;2022-09-02T07:43:46;26.01;66.50
70826;SHT31;58446;41.490;22.098;2022-09-02T07:46:12;25.82;67.78
70826;SHT31;58446;41.490;22.098;2022-09-02T07:48:38;25.87;67.01
70826;SHT31;58446;41.490;22.098;2022-09-02T07:51:04;25.65;68.31
70826;SHT31;58446;41.490;22.098;2022-09-02T07:53:31;25.41;68.46
70826;SHT31;58446;41.490;22.098;2022-09-02T07:55:58;25.53;68.44
70826;SHT31;58446;41.490;22.098;2022-09-02T07:58:24;25.37;69.00
70826;SHT31;58446;41.490;22.098;2022-09-02T08:00:51;25.15;70.97
70826;SHT31;58446;41.490;22.098;2022-09-02T08:03:18;25.03;71.84
70826;SHT31;58446;41.490;22.098;2022-09-02T08:05:44;25.12;71.60
70826;SHT31;58446;41.490;22.098;2022-09-02T08:08:13;25.11;72.51
70826;SHT31;58446;41.490;22.098;2022-09-02T08:10:40;25.11;72.31
70826;SHT31;58446;41.490;22.098;2022-09-02T08:13:06;24.97;73.32
70826;SHT31;58446;41.490;22.098;2022-09-02T08:15:34;24.81;73.70
70826;SHT31;58446;41.490;22.098;2022-09-02T08:18:01;24.90;72.50
70826;SHT31;58446;41.490;22.098;2022-09-02T08:20:27;24.91;72.02
70826;SHT31;58446;41.490;22.098;2022-09-02T08:22:55;25.14;70.44
70826;SHT31;58446;41.490;22.098;2022-09-02T08:25:22;25.34;69.26
70826;SHT31;58446;41.490;22.098;2022-09-02T08:27:48;25.25;71.59
70826;SHT31;58446;41.490;22.098;2022-09-02T08:30:14;25.35;69.32
70826;SHT31;58446;41.490;22.098;2022-09-02T08:32:40;25.22;72.37
70826;SHT31;58446;41.490;22.098;2022-09-02T08:35:07;25.27;71.12
70826;SHT31;58446;41.490;22.098;2022-09-02T08:37:34;25.18;71.24
70826;SHT31;58446;41.490;22.098;2022-09-02T08:40:02;25.04;72.18
70826;SHT31;58446;41.490;22.098;2022-09-02T08:42:37;25.35;69.36
70826;SHT31;58446;41.490;22.098;2022-09-02T08:45:27;25.21;71.03
70826;SHT31;58446;41.490;22.098;2022-09-02T08:48:16;25.31;71.97
70826;SHT31;58446;41.490;22.098;2022-09-02T08:50:47;25.19;69.86
70826;SHT31;58446;41.490;22.098;2022-09-02T08:53:28;25.27;70.32
70826;SHT31;58446;41.490;22.098;2022-09-02T08:55:56;25.24;71.92
70826;SHT31;58446;41.490;22.098;2022-09-02T08:58:41;25.29;72.73
70826;SHT31;58446;41.490;22.098;2022-09-02T09:15:04;25.08;74.57
70826;SHT31;58446;41.490;22.098;2022-09-02T09:17:51;25.12;73.13
70826;SHT31;58446;41.490;22.098;2022-09-02T09:20:24;25.11;72.47
70826;SHT31;58446;41.490;22.098;2022-09-02T09:22:54;25.32;70.67
70826;SHT31;58446;41.490;22.098;2022-09-02T09:25:23;25.35;71.67
70826;SHT31;58446;41.490;22.098;2022-09-02T09:27:59;25.10;70.85
70826;SHT31;58446;41.490;22.098;2022-09-02T09:30:26;24.92;72.04
70826;SHT31;58446;41.490;22.098;2022-09-02T09:32:54;24.94;72.65
70826;SHT31;58446;41.490;22.098;2022-09-02T09:35:23;24.88;72.71
70826;SHT31;58446;41.490;22.098;2022-09-02T09:37:50;24.97;71.97
70826;SHT31;58446;41.490;22.098;2022-09-02T09:42:47;24.87;71.56
70826;SHT31;58446;41.490;22.098;2022-09-02T09:45:30;24.77;72.46
70826;SHT31;58446;41.490;22.098;2022-09-02T09:48:20;24.97;72.02
70826;SHT31;58446;41.490;22.098;2022-09-02T09:53:28;25.24;71.50
70826;SHT31;58446;41.490;22.098;2022-09-02T09:55:55;25.25;74.29
70826;SHT31;58446;41.490;22.098;2022-09-02T09:58:42;25.31;74.56
70826;SHT31;58446;41.490;22.098;2022-09-02T10:01:25;25.56;70.51
70826;SHT31;58446;41.490;22.098;2022-09-02T10:03:54;25.61;71.51
70826;SHT31;58446;41.490;22.098;2022-09-02T10:08:55;25.63;70.17
70826;SHT31;58446;41.490;22.098;2022-09-02T10:11:27;25.63;72.20
70826;SHT31;58446;41.490;22.098;2022-09-02T10:14:19;25.45;70.62
70826;SHT31;58446;41.490;22.098;2022-09-02T10:25:24;26.37;72.30
70826;SHT31;58446;41.490;22.098;2022-09-02T10:33:18;26.48;68.11
70826;SHT31;58446;41.490;22.098;2022-09-02T10:36:02;26.44;67.97
70826;SHT31;58446;41.490;22.098;2022-09-02T10:38:41;26.47;68.37
70826;SHT31;58446;41.490;22.098;2022-09-02T10:46:50;26.36;67.55
70826;SHT31;58446;41.490;22.098;2022-09-02T10:49:37;26.41;68.90
70826;SHT31;58446;41.490;22.098;2022-09-02T10:52:35;26.41;68.05
70826;SHT31;58446;41.490;22.098;2022-09-02T11:00:25;26.57;64.71
70826;SHT31;58446;41.490;22.098;2022-09-02T11:03:11;26.59;66.02
70826;SHT31;58446;41.490;22.098;2022-09-02T11:05:44;26.59;66.23
70826;SHT31;58446;41.490;22.098;2022-09-02T11:08:26;26.41;64.16
70826;SHT31;58446;41.490;22.098;2022-09-02T11:11:13;26.43;64.34
70826;SHT31;58446;41.490;22.098;2022-09-02T11:13:53;26.52;65.17
70826;SHT31;58446;41.490;22.098;2022-09-02T11:16:35;26.62;64.97
70826;SHT31;58446;41.490;22.098;2022-09-02T11:19:13;26.78;63.40
70826;SHT31;58446;41.490;22.098;2022-09-02T11:30:14;27.18;64.31
70826;SHT31;58446;41.490;22.098;2022-09-02T11:33:09;27.08;63.71
70826;SHT31;58446;41.490;22.098;2022-09-02T11:35:38;27.18;63.92
70826;SHT31;58446;41.490;22.098;2022-09-02T11:53:39;27.51;63.60
70826;SHT31;58446;41.490;22.098;2022-09-02T11:56:27;27.40;63.43
70826;SHT31;58446;41.490;22.098;2022-09-02T11:58:54;27.39;62.21
70826;SHT31;58446;41.490;22.098;2022-09-02T12:06:36;27.42;64.34
70826;SHT31;58446;41.490;22.098;2022-09-02T12:09:05;27.12;65.08
70826;SHT31;58446;41.490;22.098;2022-09-02T12:11:37;26.89;64.48
70826;SHT31;58446;41.490;22.098;2022-09-02T12:17:00;26.79;66.20
70826;SHT31;58446;41.490;22.098;2022-09-02T12:19:47;26.78;66.06
70826;SHT31;58446;41.490;22.098;2022-09-02T12:24:54;26.49;65.78
70826;SHT31;58446;41.490;22.098;2022-09-02T12:27:35;26.40;64.74
70826;SHT31;58446;41.490;22.098;2022-09-02T12:30:05;26.43;64.55
70826;SHT31;58446;41.490;22.098;2022-09-02T12:40:40;26.31;65.76
70826;SHT31;58446;41.490;22.098;2022-09-02T12:48:49;26.37;64.88
70826;SHT31;58446;41.490;22.098;2022-09-02T12:51:58;26.20;63.40
70826;SHT31;58446;41.490;22.098;2022-09-02T12:57:06;26.18;64.74
70826;SHT31;58446;41.490;22.098;2022-09-02T12:59:34;26.03;65.65
70826;SHT31;58446;41.490;22.098;2022-09-02T13:05:03;25.63;66.56
70826;SHT31;58446;41.490;22.098;2022-09-02T13:13:39;25.41;66.82
70826;SHT31;58446;41.490;22.098;2022-09-02T13:16:26;25.24;66.65
70826;SHT31;58446;41.490;22.098;2022-09-02T13:19:23;25.55;68.30
70826;SHT31;58446;41.490;22.098;2022-09-02T13:22:28;25.78;66.41
70826;SHT31;58446;41.490;22.098;2022-09-02T13:25:06;25.70;66.87
70826;SHT31;58446;41.490;22.098;2022-09-02T13:33:04;25.97;64.55
70826;SHT31;58446;41.490;22.098;2022-09-02T13:35:31;25.85;65.87
70826;SHT31;58446;41.490;22.098;2022-09-02T13:37:59;25.89;65.68
70826;SHT31;58446;41.490;22.098;2022-09-02T13:40:30;25.92;65.76
70826;SHT31;58446;41.490;22.098;2022-09-02T13:45:40;25.70;65.21
70826;SHT31;58446;41.490;22.098;2022-09-02T13:48:10;25.69;65.21
70826;SHT31;58446;41.490;22.098;2022-09-02T13:50:44;25.69;65.48
70826;SHT31;58446;41.490;22.098;2022-09-02T13:53:18;25.70;65.43
70826;SHT31;58446;41.490;22.098;2022-09-02T13:55:52;25.70;66.48
70826;SHT31;58446;41.490;22.098;2022-09-02T13:58:32;25.83;65.45
70826;SHT31;58446;41.490;22.098;2022-09-02T14:03:49;25.76;65.64
70826;SHT31;58446;41.490;22.098;2022-09-02T14:06:22;25.46;66.26
70826;SHT31;58446;41.490;22.098;2022-09-02T14:08:54;25.42;66.87
70826;SHT31;58446;41.490;22.098;2022-09-02T14:11:26;25.53;65.81
70826;SHT31;58446;41.490;22.098;2022-09-02T14:13:53;25.61;66.40
70826;SHT31;58446;41.490;22.098;2022-09-02T14:16:34;25.79;66.13
70826;SHT31;58446;41.490;22.098;2022-09-02T14:21:50;25.69;65.46
70826;SHT31;58446;41.490;22.098;2022-09-02T14:24:23;25.82;65.63
70826;SHT31;58446;41.490;22.098;2022-09-02T14:26:52;25.86;65.17
70826;SHT31;58446;41.490;22.098;2022-09-02T14:29:19;25.75;64.14
70826;SHT31;58446;41.490;22.098;2022-09-02T14:31:46;25.72;64.66
70826;SHT31;58446;41.490;22.098;2022-09-02T14:34:35;25.73;64.47
70826;SHT31;58446;41.490;22.098;2022-09-02T14:37:26;25.82;65.43
70826;SHT31;58446;41.490;22.098;2022-09-02T14:42:26;25.79;64.50
70826;SHT31;58446;41.490;22.098;2022-09-02T14:44:51;25.68;63.74
70826;SHT31;58446;41.490;22.098;2022-09-02T14:47:19;25.55;64.17
70826;SHT31;58446;41.490;22.098;2022-09-02T14:49:51;25.65;64.97
70826;SHT31;58446;41.490;22.098;2022-09-02T14:52:25;25.73;64.37
70826;SHT31;58446;41.490;22.098;2022-09-02T14:54:54;25.83;62.54
70826;SHT31;58446;41.490;22.098;2022-09-02T14:57:26;25.83;63.06
70826;SHT31;58446;41.490;22.098;2022-09-02T14:59:54;25.78;62.75
70826;SHT31;58446;41.490;22.098;2022-09-02T15:04:56;25.63;62.37
70826;SHT31;58446;41.490;22.098;2022-09-02T15:07:22;25.65;62.19
70826;SHT31;58446;41.490;22.098;2022-09-02T15:09:49;25.68;61.98
70826;SHT31;58446;41.490;22.098;2022-09-02T15:12:25;25.66;62.15
70826;SHT31;58446;41.490;22.098;2022-09-02T15:14:54;25.55;62.92
70826;SHT31;58446;41.490;22.098;2022-09-02T15:17:21;25.49;62.36
70826;SHT31;58446;41.490;22.098;2022-09-02T15:19:47;25.34;62.84
70826;SHT31;58446;41.490;22.098;2022-09-02T15:22:13;25.11;63.70
70826;SHT31;58446;41.490;22.098;2022-09-02T15:24:40;25.06;64.00
70826;SHT31;58446;41.490;22.098;2022-09-02T15:27:10;24.95;63.96
70826;SHT31;58446;41.490;22.098;2022-09-02T15:29:36;24.97;64.29
70826;SHT31;58446;41.490;22.098;2022-09-02T15:32:02;24.98;64.38
70826;SHT31;58446;41.490;22.098;2022-09-02T15:34:29;24.84;64.70
70826;SHT31;58446;41.490;22.098;2022-09-02T15:36:55;24.81;64.71
70826;SHT31;58446;41.490;22.098;2022-09-02T15:39:24;24.70;65.24
70826;SHT31;58446;41.490;22.098;2022-09-02T15:41:50;24.61;65.67
70826;SHT31;58446;41.490;22.098;2022-09-02T15:44:17;24.60;65.73
70826;SHT31;58446;41.490;22.098;2022-09-02T15:46:43;24.57;65.96
70826;SHT31;58446;41.490;22.098;2022-09-02T15:49:12;24.55;65.87
70826;SHT31;58446;41.490;22.098;2022-09-02T15:51:41;24.47;66.24
70826;SHT31;58446;41.490;22.098;2022-09-02T15:54:11;24.49;66.51
70826;SHT31;58446;41.490;22.098;2022-09-02T15:56:38;24.52;66.54
70826;SHT31;58446;41.490;22.098;2022-09-02T15:59:13;24.46;66.73
70826;SHT31;58446;41.490;22.098;2022-09-02T16:01:41;24.41;66.96
70826;SHT31;58446;41.490;22.098;2022-09-02T16:04:08;24.36;67.54
70826;SHT31;58446;41.490;22.098;2022-09-02T16:06:36;24.35;67.95
70826;SHT31;58446;41.490;22.098;2022-09-02T16:09:09;24.25;68.29
70826;SHT31;58446;41.490;22.098;2022-09-02T16:11:40;24.28;68.39
70826;SHT31;58446;41.490;22.098;2022-09-02T16:14:07;24.19;68.66
70826;SHT31;58446;41.490;22.098;2022-09-02T16:16:33;24.05;68.88
70826;SHT31;58446;41.490;22.098;2022-09-02T16:19:00;23.98;69.11
70826;SHT31;58446;41.490;22.098;2022-09-02T16:21:26;23.86;69.59
70826;SHT31;58446;41.490;22.098;2022-09-02T16:23:53;23.82;69.57
70826;SHT31;58446;41.490;22.098;2022-09-02T16:26:27;23.82;69.91
70826;SHT31;58446;41.490;22.098;2022-09-02T16:29:01;23.67;70.21
70826;SHT31;58446;41.490;22.098;2022-09-02T16:31:30;23.68;70.13
70826;SHT31;58446;41.490;22.098;2022-09-02T16:34:02;23.67;70.15
70826;SHT31;58446;41.490;22.098;2022-09-02T16:36:30;23.67;70.17
70826;SHT31;58446;41.490;22.098;2022-09-02T16:38:56;23.68;70.21
70826;SHT31;58446;41.490;22.098;2022-09-02T16:43:55;23.67;70.39
70826;SHT31;58446;41.490;22.098;2022-09-02T16:46:21;23.61;70.29
70826;SHT31;58446;41.490;22.098;2022-09-02T16:48:47;23.68;70.23
70826;SHT31;58446;41.490;22.098;2022-09-02T16:51:14;23.55;70.54
70826;SHT31;58446;41.490;22.098;2022-09-02T16:53:39;23.54;70.60
70826;SHT31;58446;41.490;22.098;2022-09-02T16:56:06;23.55;70.57
70826;SHT31;58446;41.490;22.098;2022-09-02T16:58:35;23.58;70.44
70826;SHT31;58446;41.490;22.098;2022-09-02T17:01:04;23.43;70.83
70826;SHT31;58446;41.490;22.098;2022-09-02T17:03:36;23.48;70.74
70826;SHT31;58446;41.490;22.098;2022-09-02T17:06:02;23.46;70.84
70826;SHT31;58446;41.490;22.098;2022-09-02T17:08:28;23.50;70.87
70826;SHT31;58446;41.490;22.098;2022-09-02T17:11:16;23.58;70.20
70826;SHT31;58446;41.490;22.098;2022-09-02T17:13:45;23.89;69.98
70826;SHT31;58446;41.490;22.098;2022-09-02T17:16:11;24.30;68.67
70826;SHT31;58446;41.490;22.098;2022-09-02T17:18:37;24.43;68.36
70826;SHT31;58446;41.490;22.098;2022-09-02T17:23:42;24.47;69.09
70826;SHT31;58446;41.490;22.098;2022-09-02T17:26:08;24.36;68.98
70826;SHT31;58446;41.490;22.098;2022-09-02T17:28:34;24.41;68.82
70826;SHT31;58446;41.490;22.098;2022-09-02T17:31:00;24.32;69.42
70826;SHT31;58446;41.490;22.098;2022-09-02T17:33:28;24.41;68.79
70826;SHT31;58446;41.490;22.098;2022-09-02T17:35:55;24.57;68.36
70826;SHT31;58446;41.490;22.098;2022-09-02T17:38:21;24.53;68.64
70826;SHT31;58446;41.490;22.098;2022-09-02T17:40:47;24.53;68.55
70826;SHT31;58446;41.490;22.098;2022-09-02T17:43:30;24.55;68.67